sensor_id;sensor_type;location;lat;lon;timestamp;temperature;humidity
29803;DHT22;16702;50.898;4.662;2024-02-28T00:00:46;7.60;99.90
29803;DHT22;16702;50.898;4.662;2024-02-28T00:03:40;7.50;99.90
29803;DHT22;16702;50.898;4.662;2024-02-28T00:08:41;7.50;99.90
29803;DHT22;16702;50.898;4.662;2024-02-28T00:09:49;7.50;99.90
29803;DHT22;16702;50.898;4.662;2024-02-28T00:12:28;7.60;99.90
29803;DHT22;16702;50.898;4.662;2024-02-28T00:15:27;7.60;99.90
29803;DHT22;16702;50.898;4.662;2024-02-28T00:18:51;7.50;99.90
29803;DHT22;16702;50.898;4.662;2024-02-28T00:21:55;7.50;99.90
29803;DHT22;16702;50.898;4.662;2024-02-28T00:24:48;7.50;99.90
29803;DHT22;16702;50.898;4.662;2024-02-28T00:27:46;7.40;99.90
29803;DHT22;16702;50.898;4.662;2024-02-28T00:30:36;7.40;99.90
29803;DHT22;16702;50.898;4.662;2024-02-28T00:33:35;7.50;99.90
29803;DHT22;16702;50.898;4.662;2024-02-28T00:36:55;7.50;99.90
29803;DHT22;16702;50.898;4.662;2024-02-28T00:40:03;7.40;99.90
29803;DHT22;16702;50.898;4.662;2024-02-28T00:44:30;7.40;99.90
29803;DHT22;16702;50.898;4.662;2024-02-28T00:46:57;7.40;99.90
29803;DHT22;16702;50.898;4.662;2024-02-28T00:50:00;7.40;99.90
29803;DHT22;16702;50.898;4.662;2024-02-28T00:53:07;7.40;99.90
29803;DHT22;16702;50.898;4.662;2024-02-28T00:56:03;7.30;99.90
29803;DHT22;16702;50.898;4.662;2024-02-28T00:58:58;7.40;99.90
29803;DHT22;16702;50.898;4.662;2024-02-28T01:01:53;7.40;99.90
29803;DHT22;16702;50.898;4.662;2024-02-28T01:04:58;7.30;99.90
29803;DHT22;16702;50.898;4.662;2024-02-28T01:07:44;7.20;99.90
29803;DHT22;16702;50.898;4.662;2024-02-28T01:10:35;7.20;99.90
29803;DHT22;16702;50.898;4.662;2024-02-28T01:13:18;7.20;99.90
29803;DHT22;16702;50.898;4.662;2024-02-28T01:16:34;7.20;99.90
29803;DHT22;16702;50.898;4.662;2024-02-28T01:19:23;7.10;99.90
29803;DHT22;16702;50.898;4.662;2024-02-28T01:22:06;7.10;99.90
29803;DHT22;16702;50.898;4.662;2024-02-28T01:24:55;7.10;99.90
29803;DHT22;16702;50.898;4.662;2024-02-28T01:27:48;7.10;99.90
29803;DHT22;16702;50.898;4.662;2024-02-28T01:30:34;7.10;99.90
29803;DHT22;16702;50.898;4.662;2024-02-28T01:33:37;7.00;99.90
29803;DHT22;16702;50.898;4.662;2024-02-28T01:36:21;7.10;99.90
29803;DHT22;16702;50.898;4.662;2024-02-28T01:39:20;7.00;99.90
29803;DHT22;16702;50.898;4.662;2024-02-28T01:45:38;7.00;99.90
29803;DHT22;16702;50.898;4.662;2024-02-28T01:51:05;7.00;99.90
29803;DHT22;16702;50.898;4.662;2024-02-28T01:52:05;6.90;99.90
29803;DHT22;16702;50.898;4.662;2024-02-28T01:54:56;6.80;99.90
29803;DHT22;16702;50.898;4.662;2024-02-28T01:57:40;6.80;99.90
29803;DHT22;16702;50.898;4.662;2024-02-28T02:00:42;6.90;99.90
29803;DHT22;16702;50.898;4.662;2024-02-28T02:04:00;6.80;99.90
29803;DHT22;16702;50.898;4.662;2024-02-28T02:07:01;6.80;99.90
29803;DHT22;16702;50.898;4.662;2024-02-28T02:10:00;6.70;99.90
29803;DHT22;16702;50.898;4.662;2024-02-28T02:14:10;6.70;99.90
29803;DHT22;16702;50.898;4.662;2024-02-28T02:16:14;6.70;99.90
29803;DHT22;16702;50.898;4.662;2024-02-28T02:19:13;6.50;99.90
29803;DHT22;16702;50.898;4.662;2024-02-28T02:22:26;6.50;99.90
29803;DHT22;16702;50.898;4.662;2024-02-28T02:25:47;6.50;99.90
29803;DHT22;16702;50.898;4.662;2024-02-28T02:28:57;6.50;99.90
29803;DHT22;16702;50.898;4.662;2024-02-28T02:32:12;6.40;99.90
29803;DHT22;16702;50.898;4.662;2024-02-28T02:35:05;6.50;99.90
29803;DHT22;16702;50.898;4.662;2024-02-28T02:38:01;6.40;99.90
29803;DHT22;16702;50.898;4.662;2024-02-28T02:41:04;6.40;99.90
29803;DHT22;16702;50.898;4.662;2024-02-28T02:44:03;6.50;99.90
29803;DHT22;16702;50.898;4.662;2024-02-28T02:47:26;6.50;99.90
29803;DHT22;16702;50.898;4.662;2024-02-28T02:50:46;6.40;99.90
29803;DHT22;16702;50.898;4.662;2024-02-28T02:53:37;6.40;99.90
29803;DHT22;16702;50.898;4.662;2024-02-28T02:56:54;6.30;99.90
29803;DHT22;16702;50.898;4.662;2024-02-28T03:00:11;6.20;99.90
29803;DHT22;16702;50.898;4.662;2024-02-28T03:03:07;6.30;99.90
29803;DHT22;16702;50.898;4.662;2024-02-28T03:06:30;6.10;99.90
29803;DHT22;16702;50.898;4.662;2024-02-28T03:10:39;6.30;99.90
29803;DHT22;16702;50.898;4.662;2024-02-28T03:14:43;6.30;99.90
29803;DHT22;16702;50.898;4.662;2024-02-28T03:16:17;6.30;99.90
29803;DHT22;16702;50.898;4.662;2024-02-28T03:19:33;6.30;99.90
29803;DHT22;16702;50.898;4.662;2024-02-28T03:22:35;6.20;99.90
29803;DHT22;16702;50.898;4.662;2024-02-28T03:25:37;6.20;99.90
29803;DHT22;16702;50.898;4.662;2024-02-28T03:28:44;6.30;99.90
29803;DHT22;16702;50.898;4.662;2024-02-28T03:32:17;6.20;99.90
29803;DHT22;16702;50.898;4.662;2024-02-28T03:35:09;6.10;99.90
29803;DHT22;16702;50.898;4.662;2024-02-28T03:38:21;6.20;99.90
29803;DHT22;16702;50.898;4.662;2024-02-28T03:41:02;6.10;99.90
29803;DHT22;16702;50.898;4.662;2024-02-28T03:43:52;6.00;99.90
29803;DHT22;16702;50.898;4.662;2024-02-28T03:46:59;6.10;99.90
29803;DHT22;16702;50.898;4.662;2024-02-28T03:50:03;6.10;99.90
29803;DHT22;16702;50.898;4.662;2024-02-28T03:53:04;6.10;99.90
29803;DHT22;16702;50.898;4.662;2024-02-28T03:56:20;6.00;99.90
29803;DHT22;16702;50.898;4.662;2024-02-28T03:59:15;6.00;99.90
29803;DHT22;16702;50.898;4.662;2024-02-28T04:02:07;5.90;99.90
29803;DHT22;16702;50.898;4.662;2024-02-28T04:05:07;6.00;99.90
29803;DHT22;16702;50.898;4.662;2024-02-28T04:08:02;5.90;99.90
29803;DHT22;16702;50.898;4.662;2024-02-28T04:10:44;5.90;99.90
29803;DHT22;16702;50.898;4.662;2024-02-28T04:13:39;5.80;99.90
29803;DHT22;16702;50.898;4.662;2024-02-28T04:16:44;5.80;99.90
29803;DHT22;16702;50.898;4.662;2024-02-28T04:19:48;5.70;99.90
29803;DHT22;16702;50.898;4.662;2024-02-28T04:22:38;5.90;99.90
29803;DHT22;16702;50.898;4.662;2024-02-28T04:25:35;5.80;99.90
29803;DHT22;16702;50.898;4.662;2024-02-28T04:29:13;5.70;99.90
29803;DHT22;16702;50.898;4.662;2024-02-28T04:32:10;5.70;99.90
29803;DHT22;16702;50.898;4.662;2024-02-28T04:35:14;5.70;99.90
29803;DHT22;16702;50.898;4.662;2024-02-28T04:38:17;5.70;99.90
29803;DHT22;16702;50.898;4.662;2024-02-28T04:40:57;5.70;99.90
29803;DHT22;16702;50.898;4.662;2024-02-28T04:43:56;5.60;99.90
29803;DHT22;16702;50.898;4.662;2024-02-28T04:47:01;5.60;99.90
29803;DHT22;16702;50.898;4.662;2024-02-28T04:50:09;5.60;99.90
29803;DHT22;16702;50.898;4.662;2024-02-28T04:53:15;5.60;99.90
29803;DHT22;16702;50.898;4.662;2024-02-28T04:55:55;5.50;99.90
29803;DHT22;16702;50.898;4.662;2024-02-28T04:58:54;5.50;99.90
29803;DHT22;16702;50.898;4.662;2024-02-28T05:01:56;5.50;99.90
29803;DHT22;16702;50.898;4.662;2024-02-28T05:05:11;5.60;99.90
29803;DHT22;16702;50.898;4.662;2024-02-28T05:08:15;5.50;99.90
29803;DHT22;16702;50.898;4.662;2024-02-28T05:11:22;5.50;99.90
29803;DHT22;16702;50.898;4.662;2024-02-28T05:14:33;5.50;99.90
29803;DHT22;16702;50.898;4.662;2024-02-28T05:17:27;5.50;99.90
29803;DHT22;16702;50.898;4.662;2024-02-28T05:20:24;5.50;99.90
29803;DHT22;16702;50.898;4.662;2024-02-28T05:25:20;5.50;99.90
29803;DHT22;16702;50.898;4.662;2024-02-28T05:28:43;5.50;99.90
29803;DHT22;16702;50.898;4.662;2024-02-28T05:31:24;5.50;99.90
29803;DHT22;16702;50.898;4.662;2024-02-28T05:36:05;5.60;99.90
29803;DHT22;16702;50.898;4.662;2024-02-28T05:37:19;5.60;99.90
29803;DHT22;16702;50.898;4.662;2024-02-28T05:40:12;5.50;99.90
29803;DHT22;16702;50.898;4.662;2024-02-28T05:42:57;5.50;99.90
29803;DHT22;16702;50.898;4.662;2024-02-28T05:46:13;5.60;99.90
29803;DHT22;16702;50.898;4.662;2024-02-28T05:49:04;5.60;99.90
29803;DHT22;16702;50.898;4.662;2024-02-28T05:52:09;5.50;99.90
29803;DHT22;16702;50.898;4.662;2024-02-28T05:55:04;5.50;99.90
29803;DHT22;16702;50.898;4.662;2024-02-28T05:58:00;5.40;99.90
29803;DHT22;16702;50.898;4.662;2024-02-28T06:02:58;5.50;99.90
29803;DHT22;16702;50.898;4.662;2024-02-28T06:04:15;5.40;99.90
29803;DHT22;16702;50.898;4.662;2024-02-28T06:07:27;5.40;99.90
29803;DHT22;16702;50.898;4.662;2024-02-28T06:10:13;5.40;99.90
29803;DHT22;16702;50.898;4.662;2024-02-28T06:13:07;5.50;99.90
29803;DHT22;16702;50.898;4.662;2024-02-28T06:16:13;5.30;99.90
29803;DHT22;16702;50.898;4.662;2024-02-28T06:19:23;5.20;99.90
29803;DHT22;16702;50.898;4.662;2024-02-28T06:22:14;5.30;99.90
29803;DHT22;16702;50.898;4.662;2024-02-28T06:25:26;5.30;99.90
29803;DHT22;16702;50.898;4.662;2024-02-28T06:28:32;5.20;99.90
29803;DHT22;16702;50.898;4.662;2024-02-28T06:31:28;5.20;99.90
29803;DHT22;16702;50.898;4.662;2024-02-28T06:34:44;5.10;99.90
29803;DHT22;16702;50.898;4.662;2024-02-28T06:37:36;5.10;99.90
29803;DHT22;16702;50.898;4.662;2024-02-28T06:42:45;5.10;99.90
29803;DHT22;16702;50.898;4.662;2024-02-28T06:44:04;5.10;99.90
29803;DHT22;16702;50.898;4.662;2024-02-28T06:46:58;5.10;99.90
29803;DHT22;16702;50.898;4.662;2024-02-28T06:50:25;5.20;99.90
29803;DHT22;16702;50.898;4.662;2024-02-28T06:53:28;5.20;99.90
29803;DHT22;16702;50.898;4.662;2024-02-28T06:56:49;5.10;99.90
29803;DHT22;16702;50.898;4.662;2024-02-28T06:59:43;5.30;99.90
29803;DHT22;16702;50.898;4.662;2024-02-28T07:02:33;5.20;99.90
29803;DHT22;16702;50.898;4.662;2024-02-28T07:05:24;5.20;99.90
29803;DHT22;16702;50.898;4.662;2024-02-28T07:08:01;5.30;99.90
29803;DHT22;16702;50.898;4.662;2024-02-28T07:12:06;5.30;99.90
29803;DHT22;16702;50.898;4.662;2024-02-28T07:14:24;5.40;99.90
29803;DHT22;16702;50.898;4.662;2024-02-28T07:17:21;5.30;99.90
29803;DHT22;16702;50.898;4.662;2024-02-28T07:20:25;5.30;99.90
29803;DHT22;16702;50.898;4.662;2024-02-28T07:23:14;5.30;99.90
29803;DHT22;16702;50.898;4.662;2024-02-28T07:26:30;5.30;99.90
29803;DHT22;16702;50.898;4.662;2024-02-28T07:29:42;5.30;99.90
29803;DHT22;16702;50.898;4.662;2024-02-28T07:32:54;5.20;99.90
29803;DHT22;16702;50.898;4.662;2024-02-28T07:35:47;5.40;99.90
29803;DHT22;16702;50.898;4.662;2024-02-28T07:38:53;5.40;99.90
29803;DHT22;16702;50.898;4.662;2024-02-28T07:41:39;5.40;99.90
29803;DHT22;16702;50.898;4.662;2024-02-28T07:44:54;5.40;99.90
29803;DHT22;16702;50.898;4.662;2024-02-28T07:48:00;5.40;99.90
29803;DHT22;16702;50.898;4.662;2024-02-28T07:50:51;5.40;99.90
29803;DHT22;16702;50.898;4.662;2024-02-28T07:53:49;5.40;99.90
29803;DHT22;16702;50.898;4.662;2024-02-28T07:56:53;5.50;99.90
29803;DHT22;16702;50.898;4.662;2024-02-28T08:01:19;5.50;99.90
29803;DHT22;16702;50.898;4.662;2024-02-28T08:03:21;5.50;99.90
29803;DHT22;16702;50.898;4.662;2024-02-28T08:06:19;5.50;99.90
29803;DHT22;16702;50.898;4.662;2024-02-28T08:09:14;5.60;99.90
29803;DHT22;16702;50.898;4.662;2024-02-28T08:11:52;5.70;99.90
29803;DHT22;16702;50.898;4.662;2024-02-28T08:14:43;5.60;99.90
29803;DHT22;16702;50.898;4.662;2024-02-28T08:18:04;5.60;99.90
29803;DHT22;16702;50.898;4.662;2024-02-28T08:20:50;5.70;99.90
29803;DHT22;16702;50.898;4.662;2024-02-28T08:24:23;5.70;99.90
29803;DHT22;16702;50.898;4.662;2024-02-28T08:27:26;5.80;99.90
29803;DHT22;16702;50.898;4.662;2024-02-28T08:30:25;5.80;99.90
29803;DHT22;16702;50.898;4.662;2024-02-28T08:33:44;5.90;99.90
29803;DHT22;16702;50.898;4.662;2024-02-28T08:36:56;5.90;99.90
29803;DHT22;16702;50.898;4.662;2024-02-28T08:40:47;5.90;99.90
29803;DHT22;16702;50.898;4.662;2024-02-28T08:43:39;6.00;99.90
29803;DHT22;16702;50.898;4.662;2024-02-28T08:46:21;6.10;99.90
29803;DHT22;16702;50.898;4.662;2024-02-28T08:49:30;6.10;99.90
29803;DHT22;16702;50.898;4.662;2024-02-28T08:52:39;6.10;99.90
29803;DHT22;16702;50.898;4.662;2024-02-28T08:55:26;6.20;99.90
29803;DHT22;16702;50.898;4.662;2024-02-28T08:58:29;6.20;99.90
29803;DHT22;16702;50.898;4.662;2024-02-28T09:01:27;6.30;99.90
29803;DHT22;16702;50.898;4.662;2024-02-28T09:04:37;6.30;99.90
29803;DHT22;16702;50.898;4.662;2024-02-28T09:07:37;6.40;99.90
29803;DHT22;16702;50.898;4.662;2024-02-28T09:10:55;6.50;99.90
29803;DHT22;16702;50.898;4.662;2024-02-28T09:13:58;6.50;99.90
29803;DHT22;16702;50.898;4.662;2024-02-28T09:16:53;6.60;99.90
29803;DHT22;16702;50.898;4.662;2024-02-28T09:19:54;6.60;99.90
29803;DHT22;16702;50.898;4.662;2024-02-28T09:22:55;6.70;99.90
29803;DHT22;16702;50.898;4.662;2024-02-28T09:26:29;6.70;99.90
29803;DHT22;16702;50.898;4.662;2024-02-28T09:29:29;6.80;99.90
29803;DHT22;16702;50.898;4.662;2024-02-28T09:32:35;6.80;99.90
29803;DHT22;16702;50.898;4.662;2024-02-28T09:35:23;6.90;99.90
29803;DHT22;16702;50.898;4.662;2024-02-28T09:39:50;6.90;99.90
29803;DHT22;16702;50.898;4.662;2024-02-28T09:45:23;7.00;99.90
29803;DHT22;16702;50.898;4.662;2024-02-28T09:48:06;7.00;99.90
29803;DHT22;16702;50.898;4.662;2024-02-28T09:51:06;6.90;99.90
29803;DHT22;16702;50.898;4.662;2024-02-28T09:54:29;7.00;99.90
29803;DHT22;16702;50.898;4.662;2024-02-28T09:57:55;7.10;99.90
29803;DHT22;16702;50.898;4.662;2024-02-28T10:01:22;7.10;99.90
29803;DHT22;16702;50.898;4.662;2024-02-28T10:04:02;7.10;99.90
29803;DHT22;16702;50.898;4.662;2024-02-28T10:06:56;7.20;99.90
29803;DHT22;16702;50.898;4.662;2024-02-28T10:10:17;7.30;99.90
29803;DHT22;16702;50.898;4.662;2024-02-28T10:13:35;7.30;99.90
29803;DHT22;16702;50.898;4.662;2024-02-28T10:17:21;7.30;99.90
29803;DHT22;16702;50.898;4.662;2024-02-28T10:19:54;7.30;99.90
29803;DHT22;16702;50.898;4.662;2024-02-28T10:23:57;7.50;99.90
29803;DHT22;16702;50.898;4.662;2024-02-28T10:26:28;7.50;99.90
29803;DHT22;16702;50.898;4.662;2024-02-28T10:30:06;7.70;99.90
29803;DHT22;16702;50.898;4.662;2024-02-28T10:33:26;7.70;99.90
29803;DHT22;16702;50.898;4.662;2024-02-28T10:36:18;7.80;99.90
29803;DHT22;16702;50.898;4.662;2024-02-28T10:38:56;7.80;99.90
29803;DHT22;16702;50.898;4.662;2024-02-28T10:41:34;7.90;99.90
29803;DHT22;16702;50.898;4.662;2024-02-28T10:44:27;8.00;99.90
29803;DHT22;16702;50.898;4.662;2024-02-28T10:47:28;8.10;99.90
29803;DHT22;16702;50.898;4.662;2024-02-28T10:50:08;8.20;99.90
29803;DHT22;16702;50.898;4.662;2024-02-28T10:53:03;8.10;99.90
29803;DHT22;16702;50.898;4.662;2024-02-28T10:56:06;8.30;99.90
29803;DHT22;16702;50.898;4.662;2024-02-28T10:59:17;8.30;99.90
29803;DHT22;16702;50.898;4.662;2024-02-28T11:02:18;8.50;99.90
29803;DHT22;16702;50.898;4.662;2024-02-28T11:05:23;8.50;99.90
29803;DHT22;16702;50.898;4.662;2024-02-28T11:08:29;8.60;99.90
29803;DHT22;16702;50.898;4.662;2024-02-28T11:11:49;8.60;99.90
29803;DHT22;16702;50.898;4.662;2024-02-28T11:15:54;8.70;99.90
29803;DHT22;16702;50.898;4.662;2024-02-28T11:18:33;8.70;99.90
29803;DHT22;16702;50.898;4.662;2024-02-28T11:21:50;8.80;99.90
29803;DHT22;16702;50.898;4.662;2024-02-28T11:25:01;8.80;99.90
29803;DHT22;16702;50.898;4.662;2024-02-28T11:28:57;8.70;99.90
29803;DHT22;16702;50.898;4.662;2024-02-28T11:32:01;8.90;99.90
29803;DHT22;16702;50.898;4.662;2024-02-28T11:35:31;8.90;99.90
29803;DHT22;16702;50.898;4.662;2024-02-28T11:38:38;9.00;99.90
29803;DHT22;16702;50.898;4.662;2024-02-28T11:41:41;9.00;99.90
29803;DHT22;16702;50.898;4.662;2024-02-28T11:45:04;9.00;99.90
29803;DHT22;16702;50.898;4.662;2024-02-28T11:48:00;9.00;99.90
29803;DHT22;16702;50.898;4.662;2024-02-28T11:51:27;9.00;99.90
29803;DHT22;16702;50.898;4.662;2024-02-28T11:54:29;9.00;99.90
29803;DHT22;16702;50.898;4.662;2024-02-28T11:57:25;8.90;99.90
29803;DHT22;16702;50.898;4.662;2024-02-28T12:01:08;9.00;99.90
29803;DHT22;16702;50.898;4.662;2024-02-28T12:03:59;9.10;99.90
29803;DHT22;16702;50.898;4.662;2024-02-28T12:07:11;9.00;99.90
29803;DHT22;16702;50.898;4.662;2024-02-28T12:10:01;9.10;99.90
29803;DHT22;16702;50.898;4.662;2024-02-28T12:13:01;9.20;99.90
29803;DHT22;16702;50.898;4.662;2024-02-28T12:16:09;9.20;99.90
29803;DHT22;16702;50.898;4.662;2024-02-28T12:18:53;9.20;99.90
29803;DHT22;16702;50.898;4.662;2024-02-28T12:21:43;9.20;99.90
29803;DHT22;16702;50.898;4.662;2024-02-28T12:24:20;9.30;99.90
29803;DHT22;16702;50.898;4.662;2024-02-28T12:27:30;9.30;99.90
29803;DHT22;16702;50.898;4.662;2024-02-28T12:31:05;9.30;99.90
29803;DHT22;16702;50.898;4.662;2024-02-28T12:38:00;9.50;99.90
29803;DHT22;16702;50.898;4.662;2024-02-28T12:43:14;9.50;99.90
29803;DHT22;16702;50.898;4.662;2024-02-28T12:44:08;9.50;99.90
29803;DHT22;16702;50.898;4.662;2024-02-28T12:47:01;9.60;99.90
29803;DHT22;16702;50.898;4.662;2024-02-28T12:50:01;9.40;99.90
29803;DHT22;16702;50.898;4.662;2024-02-28T12:52:59;9.60;99.90
29803;DHT22;16702;50.898;4.662;2024-02-28T12:56:10;9.70;99.90
29803;DHT22;16702;50.898;4.662;2024-02-28T12:59:33;9.70;99.90
29803;DHT22;16702;50.898;4.662;2024-02-28T13:02:43;9.90;99.90
29803;DHT22;16702;50.898;4.662;2024-02-28T13:07:51;9.80;99.90
29803;DHT22;16702;50.898;4.662;2024-02-28T13:09:01;9.90;99.90
29803;DHT22;16702;50.898;4.662;2024-02-28T13:14:53;10.00;99.90
29803;DHT22;16702;50.898;4.662;2024-02-28T13:15:36;10.00;99.90
29803;DHT22;16702;50.898;4.662;2024-02-28T13:19:46;10.10;99.90
29803;DHT22;16702;50.898;4.662;2024-02-28T13:22:15;10.10;99.90
29803;DHT22;16702;50.898;4.662;2024-02-28T13:25:14;10.20;99.90
29803;DHT22;16702;50.898;4.662;2024-02-28T13:28:00;10.20;99.90
29803;DHT22;16702;50.898;4.662;2024-02-28T13:31:11;10.10;99.90
29803;DHT22;16702;50.898;4.662;2024-02-28T13:37:04;10.10;99.90
29803;DHT22;16702;50.898;4.662;2024-02-28T13:37:41;10.10;99.90
29803;DHT22;16702;50.898;4.662;2024-02-28T13:40:56;10.10;99.90
29803;DHT22;16702;50.898;4.662;2024-02-28T13:43:51;10.20;99.90
29803;DHT22;16702;50.898;4.662;2024-02-28T13:46:44;10.30;99.90
29803;DHT22;16702;50.898;4.662;2024-02-28T13:49:44;10.30;99.90
29803;DHT22;16702;50.898;4.662;2024-02-28T13:52:48;10.40;99.90
29803;DHT22;16702;50.898;4.662;2024-02-28T13:56:03;10.40;99.90
29803;DHT22;16702;50.898;4.662;2024-02-28T13:58:36;10.50;99.90
29803;DHT22;16702;50.898;4.662;2024-02-28T14:01:34;10.50;99.90
29803;DHT22;16702;50.898;4.662;2024-02-28T14:07:22;10.50;99.90
29803;DHT22;16702;50.898;4.662;2024-02-28T14:08:20;10.50;99.90
29803;DHT22;16702;50.898;4.662;2024-02-28T14:11:46;10.70;99.90
29803;DHT22;16702;50.898;4.662;2024-02-28T14:15:17;10.80;99.90
29803;DHT22;16702;50.898;4.662;2024-02-28T14:18:37;10.80;99.90
29803;DHT22;16702;50.898;4.662;2024-02-28T14:21:12;10.80;99.90
29803;DHT22;16702;50.898;4.662;2024-02-28T14:23:53;10.80;99.90
29803;DHT22;16702;50.898;4.662;2024-02-28T14:29:40;10.70;99.90
29803;DHT22;16702;50.898;4.662;2024-02-28T14:30:51;10.70;99.90
29803;DHT22;16702;50.898;4.662;2024-02-28T14:38:22;10.70;99.90
29803;DHT22;16702;50.898;4.662;2024-02-28T14:40:08;10.70;99.90
29803;DHT22;16702;50.898;4.662;2024-02-28T14:45:40;10.70;99.90
29803;DHT22;16702;50.898;4.662;2024-02-28T14:46:08;10.70;99.90
29803;DHT22;16702;50.898;4.662;2024-02-28T14:49:19;10.70;99.90
29803;DHT22;16702;50.898;4.662;2024-02-28T14:52:27;10.70;99.90
29803;DHT22;16702;50.898;4.662;2024-02-28T14:55:35;10.80;99.90
29803;DHT22;16702;50.898;4.662;2024-02-28T14:58:31;10.70;99.90
29803;DHT22;16702;50.898;4.662;2024-02-28T15:01:41;10.80;99.90
29803;DHT22;16702;50.898;4.662;2024-02-28T15:04:36;10.80;99.90
29803;DHT22;16702;50.898;4.662;2024-02-28T15:07:52;10.90;99.90
29803;DHT22;16702;50.898;4.662;2024-02-28T15:11:05;10.90;99.90
29803;DHT22;16702;50.898;4.662;2024-02-28T15:14:44;10.80;99.90
29803;DHT22;16702;50.898;4.662;2024-02-28T15:17:22;10.80;99.90
29803;DHT22;16702;50.898;4.662;2024-02-28T15:20:06;10.80;99.90
29803;DHT22;16702;50.898;4.662;2024-02-28T15:23:10;10.80;99.90
29803;DHT22;16702;50.898;4.662;2024-02-28T15:26:12;10.90;99.90
29803;DHT22;16702;50.898;4.662;2024-02-28T15:30:34;10.90;99.90
29803;DHT22;16702;50.898;4.662;2024-02-28T15:32:47;10.80;99.90
29803;DHT22;16702;50.898;4.662;2024-02-28T15:35:54;10.80;99.90
29803;DHT22;16702;50.898;4.662;2024-02-28T15:39:59;10.70;99.90
29803;DHT22;16702;50.898;4.662;2024-02-28T15:42:18;10.80;99.90
29803;DHT22;16702;50.898;4.662;2024-02-28T15:45:10;10.80;99.90
29803;DHT22;16702;50.898;4.662;2024-02-28T15:48:27;10.80;99.90
29803;DHT22;16702;50.898;4.662;2024-02-28T15:52:14;10.70;99.90
29803;DHT22;16702;50.898;4.662;2024-02-28T15:58:53;10.60;99.90
29803;DHT22;16702;50.898;4.662;2024-02-28T16:02:11;10.60;99.90
29803;DHT22;16702;50.898;4.662;2024-02-28T16:05:04;10.50;99.90
29803;DHT22;16702;50.898;4.662;2024-02-28T16:07:42;10.60;99.90
29803;DHT22;16702;50.898;4.662;2024-02-28T16:10:49;10.60;99.90
29803;DHT22;16702;50.898;4.662;2024-02-28T16:14:11;10.60;99.90
29803;DHT22;16702;50.898;4.662;2024-02-28T16:17:19;10.50;99.90
29803;DHT22;16702;50.898;4.662;2024-02-28T16:20:33;10.50;99.90
29803;DHT22;16702;50.898;4.662;2024-02-28T16:23:38;10.50;99.90
29803;DHT22;16702;50.898;4.662;2024-02-28T16:26:43;10.50;99.90
29803;DHT22;16702;50.898;4.662;2024-02-28T16:33:08;10.40;99.90
29803;DHT22;16702;50.898;4.662;2024-02-28T16:36:06;10.40;99.90
29803;DHT22;16702;50.898;4.662;2024-02-28T16:39:12;10.40;99.90
29803;DHT22;16702;50.898;4.662;2024-02-28T16:42:19;10.40;99.90
29803;DHT22;16702;50.898;4.662;2024-02-28T16:45:32;10.30;99.90
29803;DHT22;16702;50.898;4.662;2024-02-28T16:48:29;10.40;99.90
29803;DHT22;16702;50.898;4.662;2024-02-28T16:51:07;10.30;99.90
29803;DHT22;16702;50.898;4.662;2024-02-28T16:56:39;10.30;99.90
29803;DHT22;16702;50.898;4.662;2024-02-28T16:58:04;10.40;99.90
29803;DHT22;16702;50.898;4.662;2024-02-28T17:00:35;10.40;99.90
29803;DHT22;16702;50.898;4.662;2024-02-28T17:03:51;10.30;99.90
29803;DHT22;16702;50.898;4.662;2024-02-28T17:08:07;10.30;99.90
29803;DHT22;16702;50.898;4.662;2024-02-28T17:10:26;10.30;99.90
29803;DHT22;16702;50.898;4.662;2024-02-28T17:13:53;10.30;99.90
29803;DHT22;16702;50.898;4.662;2024-02-28T17:16:58;10.20;99.90
29803;DHT22;16702;50.898;4.662;2024-02-28T17:19:59;10.20;99.90
29803;DHT22;16702;50.898;4.662;2024-02-28T17:23:05;10.20;99.90
29803;DHT22;16702;50.898;4.662;2024-02-28T17:25:44;10.20;99.90
29803;DHT22;16702;50.898;4.662;2024-02-28T17:28:57;10.20;99.90
29803;DHT22;16702;50.898;4.662;2024-02-28T17:32:00;10.10;99.90
29803;DHT22;16702;50.898;4.662;2024-02-28T17:35:12;10.10;99.90
29803;DHT22;16702;50.898;4.662;2024-02-28T17:38:04;10.10;99.90
29803;DHT22;16702;50.898;4.662;2024-02-28T17:43:16;10.10;99.90
29803;DHT22;16702;50.898;4.662;2024-02-28T17:44:13;10.10;99.90
29803;DHT22;16702;50.898;4.662;2024-02-28T17:47:46;10.00;99.90
29803;DHT22;16702;50.898;4.662;2024-02-28T17:52:26;9.90;99.90
29803;DHT22;16702;50.898;4.662;2024-02-28T17:54:26;9.90;99.90
29803;DHT22;16702;50.898;4.662;2024-02-28T17:57:19;9.90;99.90
29803;DHT22;16702;50.898;4.662;2024-02-28T18:03:45;9.90;99.90
29803;DHT22;16702;50.898;4.662;2024-02-28T18:06:37;9.90;99.90
29803;DHT22;16702;50.898;4.662;2024-02-28T18:09:55;9.90;99.90
29803;DHT22;16702;50.898;4.662;2024-02-28T18:13:09;9.80;99.90
29803;DHT22;16702;50.898;4.662;2024-02-28T18:16:39;9.80;99.90
29803;DHT22;16702;50.898;4.662;2024-02-28T18:19:08;9.80;99.90
29803;DHT22;16702;50.898;4.662;2024-02-28T18:22:24;9.70;99.90
29803;DHT22;16702;50.898;4.662;2024-02-28T18:25:15;9.80;99.90
29803;DHT22;16702;50.898;4.662;2024-02-28T18:28:13;9.70;99.90
29803;DHT22;16702;50.898;4.662;2024-02-28T18:31:17;9.70;99.90
29803;DHT22;16702;50.898;4.662;2024-02-28T18:34:22;9.70;99.90
29803;DHT22;16702;50.898;4.662;2024-02-28T18:37:31;9.70;99.90
29803;DHT22;16702;50.898;4.662;2024-02-28T18:40:39;9.70;99.90
29803;DHT22;16702;50.898;4.662;2024-02-28T18:44:33;9.70;99.90
29803;DHT22;16702;50.898;4.662;2024-02-28T18:47:17;9.60;99.90
29803;DHT22;16702;50.898;4.662;2024-02-28T18:50:14;9.70;99.90
29803;DHT22;16702;50.898;4.662;2024-02-28T18:53:33;9.60;99.90
29803;DHT22;16702;50.898;4.662;2024-02-28T18:56:32;9.60;99.90
29803;DHT22;16702;50.898;4.662;2024-02-28T18:59:22;9.60;99.90
29803;DHT22;16702;50.898;4.662;2024-02-28T19:02:56;9.60;99.90
29803;DHT22;16702;50.898;4.662;2024-02-28T19:05:46;9.60;99.90
29803;DHT22;16702;50.898;4.662;2024-02-28T19:09:22;9.50;99.90
29803;DHT22;16702;50.898;4.662;2024-02-28T19:12:20;9.50;99.90
29803;DHT22;16702;50.898;4.662;2024-02-28T19:15:43;9.60;99.90
29803;DHT22;16702;50.898;4.662;2024-02-28T19:20:19;9.60;99.90
29803;DHT22;16702;50.898;4.662;2024-02-28T19:23:06;9.40;99.90
29803;DHT22;16702;50.898;4.662;2024-02-28T19:28:05;9.40;99.90
29803;DHT22;16702;50.898;4.662;2024-02-28T19:29:46;9.50;99.90
29803;DHT22;16702;50.898;4.662;2024-02-28T19:35:46;9.40;99.90
29803;DHT22;16702;50.898;4.662;2024-02-28T19:39:12;9.30;99.90
29803;DHT22;16702;50.898;4.662;2024-02-28T19:42:23;9.30;99.90
29803;DHT22;16702;50.898;4.662;2024-02-28T19:45:43;9.30;99.90
29803;DHT22;16702;50.898;4.662;2024-02-28T19:51:01;9.30;99.90
29803;DHT22;16702;50.898;4.662;2024-02-28T19:52:12;9.30;99.90
29803;DHT22;16702;50.898;4.662;2024-02-28T19:59:33;9.30;99.90
29803;DHT22;16702;50.898;4.662;2024-02-28T20:02:28;9.20;99.90
29803;DHT22;16702;50.898;4.662;2024-02-28T20:05:35;9.20;99.90
29803;DHT22;16702;50.898;4.662;2024-02-28T20:08:54;9.30;99.90
29803;DHT22;16702;50.898;4.662;2024-02-28T20:11:49;9.20;99.90
29803;DHT22;16702;50.898;4.662;2024-02-28T20:14:33;9.20;99.90
29803;DHT22;16702;50.898;4.662;2024-02-28T20:18:16;9.20;99.90